createdAt,value
2019-03-02T00:36:25.063Z,14.20
2019-03-02T00:38:53.867Z,13.30
2019-03-02T00:41:22.311Z,13.37
2019-03-02T00:43:50.752Z,13.47
2019-03-02T00:49:47.908Z,13.93
2019-03-02T00:52:16.351Z,14.40
2019-03-02T00:58:13.394Z,14.10
2019-03-02T01:00:42.607Z,14.07
2019-03-02T01:03:12.057Z,14.40
2019-03-02T01:05:41.552Z,14.03
2019-03-02T01:08:10.014Z,14.67
2019-03-02T01:10:38.446Z,14.20
2019-03-02T01:13:06.950Z,15.03
2019-03-02T01:15:35.506Z,14.33
2019-03-02T01:18:06.674Z,14.73
2019-03-02T01:20:34.168Z,15.30
2019-03-02T01:23:02.639Z,14.97
2019-03-02T01:25:31.072Z,15.83
2019-03-02T01:31:28.350Z,15.60
2019-03-02T01:33:56.822Z,16.60
2019-03-02T01:36:28.654Z,16.00
2019-03-02T01:42:12.718Z,15.63
2019-03-02T01:44:41.183Z,16.60
2019-03-02T01:47:12.553Z,16.53
2019-03-02T01:49:39.777Z,14.73
2019-03-02T01:52:08.573Z,16.10
2019-03-02T01:54:37.537Z,16.27
2019-03-02T02:00:34.939Z,15.80
2019-03-02T02:03:03.812Z,16.00
2019-03-02T02:09:13.842Z,16.80
2019-03-02T02:11:42.914Z,16.67
2019-03-02T02:14:11.358Z,17.10
2019-03-02T02:16:41.827Z,17.87
2019-03-02T02:19:09.984Z,18.87
2019-03-02T02:21:38.423Z,17.37
2019-03-02T02:24:06.952Z,17.47
2019-03-02T02:26:35.382Z,18.83
2019-03-02T02:32:32.256Z,18.07
2019-03-02T02:35:02.623Z,18.57
2019-03-02T02:37:32.186Z,19.27
2019-03-02T02:43:05.527Z,18.23
2019-03-02T02:45:34.199Z,19.27
2019-03-02T02:51:48.956Z,17.63
2019-03-02T02:54:22.853Z,17.97
2019-03-02T02:56:44.938Z,18.43
2019-03-02T02:59:13.744Z,18.30
2019-03-02T03:01:42.558Z,18.20
2019-03-02T03:04:11.049Z,18.87
2019-03-02T03:06:39.703Z,19.17
2019-03-02T03:09:11.605Z,21.03
2019-03-02T03:15:10.415Z,17.97
2019-03-02T03:17:38.995Z,19.23
2019-03-02T03:20:10.418Z,18.87
2019-03-02T03:26:07.535Z,17.97
2019-03-02T03:28:35.991Z,18.73
2019-03-02T03:31:04.425Z,19.00
2019-03-02T03:33:42.009Z,18.57
2019-03-02T03:39:31.256Z,19.40
2019-03-02T03:41:59.867Z,17.93
2019-03-02T03:44:28.641Z,18.23
2019-03-02T03:47:00.652Z,18.53
2019-03-02T03:49:30.102Z,17.77
2019-03-02T03:51:57.483Z,17.80
2019-03-02T03:54:25.916Z,17.00
2019-03-02T04:00:23.590Z,17.77
2019-03-02T04:02:52.917Z,17.23
2019-03-02T04:05:21.351Z,17.00
2019-03-02T04:07:51.436Z,17.43
2019-03-02T04:10:25.579Z,17.07
2019-03-02T04:12:50.435Z,17.13
2019-03-02T04:15:19.546Z,16.63
2019-03-02T04:17:48.172Z,16.20
2019-03-02T04:20:25.647Z,16.53
2019-03-02T04:22:55.975Z,15.93
2019-03-02T04:25:24.399Z,16.17
2019-03-02T04:27:54.162Z,16.20
2019-03-02T04:30:30.533Z,16.07
2019-03-02T04:32:53.213Z,16.13
2019-03-02T04:35:21.701Z,15.60
2019-03-02T04:37:50.587Z,16.40
2019-03-02T04:40:23.287Z,15.40
2019-03-02T04:42:50.193Z,15.67
2019-03-02T04:45:19.376Z,16.33
2019-03-02T04:47:48.159Z,16.07
2019-03-02T04:50:16.605Z,17.03
2019-03-02T04:52:46.641Z,16.00
2019-03-02T04:55:15.490Z,15.67
2019-03-02T04:57:43.928Z,15.53
2019-03-02T05:03:41.476Z,16.40
2019-03-02T05:06:09.915Z,16.97
2019-03-02T05:08:41.151Z,17.03
2019-03-02T05:14:49.945Z,16.47
2019-03-02T05:17:18.450Z,16.17
2019-03-02T05:19:47.218Z,17.97
2019-03-02T05:22:18.820Z,18.03
2019-03-02T05:24:46.166Z,17.60
2019-03-02T05:27:14.606Z,17.07
2019-03-02T05:29:43.414Z,18.23
2019-03-02T05:32:12.522Z,18.37
2019-03-02T05:34:42.021Z,17.53
2019-03-02T05:37:10.468Z,18.80
2019-03-02T05:39:38.900Z,16.93
2019-03-02T05:45:13.569Z,17.03
2019-03-02T05:51:11.031Z,17.63
2019-03-02T05:53:39.503Z,17.00
2019-03-02T05:59:48.978Z,18.43
2019-03-02T06:05:58.313Z,17.17
2019-03-02T06:12:11.819Z,16.87
2019-03-02T06:18:19.762Z,18.30
2019-03-02T06:24:29.363Z,17.73
2019-03-02T06:30:40.644Z,17.53
2019-03-02T06:36:50.155Z,18.33
2019-03-02T06:42:59.797Z,17.27
2019-03-02T06:45:28.235Z,18.43
2019-03-02T06:51:25.015Z,18.03
2019-03-02T06:53:53.448Z,17.90
2019-03-02T06:59:50.975Z,18.37
2019-03-02T07:05:47.938Z,17.93
2019-03-02T07:11:21.242Z,18.30
2019-03-02T07:13:49.714Z,17.53
2019-03-02T07:16:20.078Z,18.80
2019-03-02T07:22:17.979Z,18.93
2019-03-02T07:24:46.958Z,18.73
2019-03-02T07:27:15.393Z,18.17
2019-03-02T07:29:43.823Z,18.03
2019-03-02T07:35:41.096Z,17.07
2019-03-02T07:38:09.532Z,16.83
2019-03-02T07:40:41.159Z,17.83
2019-03-02T07:43:09.710Z,17.23
2019-03-02T07:45:38.648Z,17.40
2019-03-02T07:48:07.286Z,16.70
2019-03-02T07:54:16.795Z,15.50
2019-03-02T07:56:45.231Z,16.33
2019-03-02T08:02:42.591Z,15.20
2019-03-02T08:05:14.641Z,15.80
2019-03-02T08:07:42.123Z,15.67
2019-03-02T08:10:12.099Z,15.77
2019-03-02T08:12:40.667Z,15.23
2019-03-02T08:15:14.796Z,15.00
2019-03-02T08:17:45.590Z,15.17
2019-03-02T08:20:16.555Z,15.77
2019-03-02T08:22:46.324Z,15.77
2019-03-02T08:28:45.802Z,15.53
2019-03-02T08:31:14.487Z,15.47
2019-03-02T08:33:45.907Z,15.87
2019-03-02T08:36:16.798Z,15.80
2019-03-02T08:38:43.463Z,15.47
2019-03-02T08:41:11.903Z,15.43
2019-03-02T08:43:40.340Z,16.80
2019-03-02T08:46:09.058Z,18.20
2019-03-02T08:52:19.205Z,18.00
2019-03-02T08:58:29.090Z,15.20
2019-03-02T09:04:38.716Z,15.17
2019-03-02T09:07:07.754Z,16.13
2019-03-02T09:09:37.910Z,14.67
2019-03-02T09:12:06.670Z,15.70
2019-03-02T09:14:35.114Z,15.77
2019-03-02T09:20:35.691Z,15.43
2019-03-02T09:23:02.803Z,15.97
2019-03-02T09:29:12.568Z,16.87
2019-03-02T09:31:42.285Z,16.73
2019-03-02T09:34:10.720Z,16.20
2019-03-02T09:40:16.269Z,15.83
2019-03-02T09:42:44.950Z,16.43
2019-03-02T09:45:17.987Z,16.77
2019-03-02T09:50:50.923Z,16.70
2019-03-02T09:56:48.442Z,15.97
2019-03-02T09:59:16.934Z,17.27
2019-03-02T10:01:45.359Z,16.17
2019-03-02T10:04:13.794Z,15.03
2019-03-02T10:10:13.706Z,14.30
2019-03-02T10:12:42.255Z,14.37
2019-03-02T10:18:51.958Z,14.27
2019-03-02T10:25:01.784Z,14.30
2019-03-02T10:31:13.288Z,15.10
2019-03-02T10:37:22.521Z,14.00
2019-03-02T10:39:50.951Z,15.40
2019-03-02T10:42:19.396Z,15.03
2019-03-02T10:44:47.962Z,13.07
2019-03-02T10:50:59.166Z,12.10
2019-03-02T10:53:27.960Z,12.13
2019-03-02T10:59:25.319Z,11.70
2019-03-02T11:01:53.751Z,12.43
2019-03-02T11:04:33.290Z,12.17
2019-03-02T11:07:05.059Z,13.23
2019-03-02T11:09:36.391Z,12.77
2019-03-02T11:12:08.008Z,13.73
2019-03-02T11:18:21.883Z,11.97
2019-03-02T11:24:48.100Z,12.07
2019-03-02T11:27:20.787Z,12.27
2019-03-02T11:29:59.622Z,12.10
2019-03-02T11:32:29.703Z,11.13
2019-03-02T11:35:19.326Z,12.33
2019-03-02T11:37:49.595Z,12.03
2019-03-02T11:40:36.061Z,11.63
2019-03-02T11:43:16.231Z,11.60
2019-03-02T11:46:03.670Z,11.20
2019-03-02T11:48:33.835Z,12.23
2019-03-02T11:54:32.674Z,11.57
2019-03-02T11:57:07.790Z,10.57
2019-03-02T11:59:37.660Z,11.47
2019-03-02T12:02:15.642Z,12.23
2019-03-02T12:04:57.486Z,11.87
2019-03-02T12:11:01.794Z,11.67
2019-03-02T12:13:34.996Z,11.47
2019-03-02T12:16:11.252Z,11.13
2019-03-02T12:18:54.169Z,11.97
2019-03-02T12:25:09.771Z,12.77
2019-03-02T12:27:45.720Z,11.23
2019-03-02T12:33:44.064Z,11.13
2019-03-02T12:36:29.286Z,11.63
2019-03-02T12:39:08.163Z,11.27
2019-03-02T12:41:55.224Z,11.00
2019-03-02T12:44:37.262Z,11.90
2019-03-02T12:47:07.435Z,11.53
2019-03-02T12:49:39.987Z,11.37
2019-03-02T12:52:24.742Z,12.50
2019-03-02T12:55:11.012Z,12.47
2019-03-02T12:57:53.333Z,12.63
2019-03-02T13:00:32.594Z,11.87
2019-03-02T13:06:32.248Z,10.60
2019-03-02T13:12:32.017Z,11.20
2019-03-02T13:18:34.279Z,10.63
2019-03-02T13:21:04.383Z,10.43
2019-03-02T13:27:25.935Z,10.97
2019-03-02T13:29:56.158Z,11.47
2019-03-02T13:32:35.197Z,11.07
2019-03-02T13:35:23.375Z,11.03
2019-03-02T13:38:00.592Z,11.37
2019-03-02T13:40:39.313Z,10.83
2019-03-02T13:46:53.570Z,12.90
2019-03-02T13:49:23.755Z,12.00
2019-03-02T13:52:03.189Z,10.67
2019-03-02T13:54:48.243Z,10.37
2019-03-02T14:01:08.562Z,10.47
2019-03-02T14:03:38.643Z,12.47
2019-03-02T14:09:53.782Z,11.43
2019-03-02T14:15:59.475Z,11.13
2019-03-02T14:21:56.565Z,11.90
2019-03-02T14:28:02.099Z,13.80
2019-03-02T14:34:07.175Z,13.30
2019-03-02T14:36:41.951Z,13.67
2019-03-02T14:42:53.211Z,12.50
2019-03-02T14:49:07.460Z,9.20
2019-03-02T14:51:56.728Z,8.40
2019-03-02T14:58:00.254Z,8.27
2019-03-02T15:04:07.630Z,8.80
2019-03-02T15:10:12.915Z,8.87
2019-03-02T15:12:52.510Z,9.00
2019-03-02T15:19:06.579Z,9.10
2019-03-02T15:25:17.528Z,9.70
2019-03-02T15:31:35.060Z,8.50
2019-03-02T15:34:20.267Z,8.13
2019-03-02T15:36:56.707Z,8.70
2019-03-02T15:43:07.975Z,7.67
2019-03-02T15:49:36.149Z,8.70
2019-03-02T15:52:19.131Z,8.13
2019-03-02T15:58:30.320Z,9.07
2019-03-02T16:01:03.459Z,8.90
2019-03-02T16:03:45.529Z,8.33
2019-03-02T16:09:56.722Z,8.90
2019-03-02T16:12:29.796Z,9.53
2019-03-02T16:15:16.500Z,9.30
2019-03-02T16:17:55.323Z,9.37
2019-03-02T16:20:28.230Z,9.17
2019-03-02T16:26:36.007Z,9.27
2019-03-02T16:29:06.452Z,9.10
2019-03-02T16:35:11.026Z,9.57
2019-03-02T16:41:38.914Z,10.77
2019-03-02T16:47:51.794Z,9.37
2019-03-02T16:53:58.389Z,8.87
2019-03-02T16:56:29.047Z,9.03
2019-03-02T16:59:05.034Z,9.47
2019-03-02T17:05:16.030Z,9.47
2019-03-02T17:07:55.051Z,9.17
2019-03-02T17:10:38.882Z,9.00
2019-03-02T17:13:09.090Z,8.57
2019-03-02T17:15:58.813Z,10.07
2019-03-02T17:18:44.789Z,10.53
2019-03-02T17:24:37.708Z,9.87
2019-03-02T17:30:37.367Z,9.20
2019-03-02T17:33:16.751Z,8.00
2019-03-02T17:39:30.647Z,7.70
2019-03-02T17:42:00.782Z,7.20
2019-03-02T17:44:30.852Z,7.60
2019-03-02T17:47:07.077Z,6.70
2019-03-02T17:49:44.689Z,6.50
2019-03-02T17:52:28.643Z,6.77
2019-03-02T17:55:10.758Z,6.93
2019-03-02T17:57:59.350Z,6.80
2019-03-02T18:00:41.512Z,6.30
2019-03-02T18:06:59.390Z,6.67
2019-03-02T18:09:38.886Z,6.20
2019-03-02T18:12:11.915Z,6.60
2019-03-02T18:14:45.294Z,6.17
2019-03-02T18:17:24.122Z,5.83
2019-03-02T18:19:52.577Z,6.03
2019-03-02T18:22:21.542Z,5.83
2019-03-02T18:24:50.547Z,6.37
2019-03-02T18:30:47.675Z,8.13
2019-03-02T18:33:20.582Z,6.67
2019-03-02T18:39:30.138Z,6.07
2019-03-02T18:45:40.643Z,6.20
2019-03-02T18:48:11.458Z,5.80
2019-03-02T18:50:42.197Z,6.10
2019-03-02T18:53:10.846Z,5.90
2019-03-02T18:55:39.279Z,6.40
2019-03-02T19:01:36.691Z,5.70
2019-03-02T19:04:05.986Z,5.67
2019-03-02T19:06:34.654Z,6.00
2019-03-02T19:09:03.556Z,6.20
2019-03-02T19:11:32.367Z,5.83
2019-03-02T19:17:46.663Z,5.70
2019-03-02T19:23:56.734Z,6.20
2019-03-02T19:26:25.582Z,5.80
2019-03-02T19:28:54.006Z,6.07
2019-03-02T19:34:58.460Z,6.07
2019-03-02T19:37:27.007Z,6.00
2019-03-02T19:39:55.444Z,6.47
2019-03-02T19:45:52.594Z,5.83
2019-03-02T19:51:50.555Z,6.03
2019-03-02T19:54:19.006Z,6.60
2019-03-02T20:00:30.626Z,6.90
2019-03-02T20:06:40.116Z,5.97
2019-03-02T20:12:49.716Z,6.87
2019-03-02T20:15:20.954Z,6.90
2019-03-02T20:17:49.456Z,7.50
2019-03-02T20:20:18.777Z,6.50
2019-03-02T20:22:47.283Z,7.23
2019-03-02T20:28:19.871Z,7.07
2019-03-02T20:30:48.502Z,7.17
2019-03-02T20:33:16.930Z,7.20
2019-03-02T20:35:45.363Z,7.03
2019-03-02T20:38:13.971Z,6.90
2019-03-02T20:40:42.462Z,6.83
2019-03-02T20:43:10.886Z,6.83
2019-03-02T20:45:39.515Z,7.13
2019-03-02T20:48:07.957Z,6.40
2019-03-02T20:50:36.503Z,7.20
2019-03-02T20:53:04.964Z,6.60
2019-03-02T20:55:33.399Z,7.33
2019-03-02T21:01:30.990Z,6.90
2019-03-02T21:03:59.627Z,7.43
2019-03-02T21:06:28.190Z,7.53
2019-03-02T21:08:56.615Z,7.20
2019-03-02T21:11:25.089Z,7.87
2019-03-02T21:13:53.505Z,7.43
2019-03-02T21:19:51.202Z,7.20
2019-03-02T21:22:20.095Z,7.27
2019-03-02T21:24:48.528Z,7.03
2019-03-02T21:27:16.963Z,6.83
2019-03-02T21:29:45.431Z,7.27
2019-03-02T21:32:14.203Z,7.30
2019-03-02T21:34:42.625Z,7.63
2019-03-02T21:37:11.407Z,7.17
2019-03-02T21:43:21.907Z,6.70
2019-03-02T21:49:31.799Z,6.83
2019-03-02T21:52:00.231Z,6.53
2019-03-02T21:54:28.664Z,6.80
2019-03-02T21:56:57.237Z,6.87
2019-03-02T21:59:25.674Z,7.20
2019-03-02T22:01:54.103Z,6.37
2019-03-02T22:04:22.868Z,6.70
2019-03-02T22:10:44.487Z,5.97
2019-03-02T22:13:12.921Z,6.20
2019-03-02T22:15:41.367Z,5.40
2019-03-02T22:18:09.969Z,5.40
2019-03-02T22:20:38.407Z,5.73
2019-03-02T22:23:06.910Z,5.07
2019-03-02T22:29:04.171Z,4.97
2019-03-02T22:31:33.450Z,5.07
2019-03-02T22:34:02.410Z,5.10
2019-03-02T22:36:31.398Z,4.80
2019-03-02T22:39:00.506Z,6.33
2019-03-02T22:41:29.410Z,5.00
2019-03-02T22:43:58.494Z,4.10
2019-03-02T22:46:27.816Z,4.43
2019-03-02T22:48:56.856Z,4.33
2019-03-02T22:51:26.282Z,3.90
2019-03-02T22:53:55.722Z,4.00
2019-03-02T23:00:22.806Z,4.00
2019-03-02T23:02:50.230Z,3.90
2019-03-02T23:05:19.015Z,3.40
2019-03-02T23:07:47.470Z,3.53
2019-03-02T23:10:16.238Z,3.40
2019-03-02T23:12:44.908Z,3.40
2019-03-02T23:15:18.540Z,3.80
2019-03-02T23:17:46.971Z,4.37
2019-03-02T23:23:43.731Z,3.80
2019-03-02T23:26:12.235Z,3.70
2019-03-02T23:28:40.706Z,3.70
2019-03-02T23:31:09.380Z,3.93
2019-03-02T23:37:06.431Z,3.73
2019-03-02T23:39:35.045Z,3.60
2019-03-02T23:45:45.178Z,3.60
2019-03-02T23:48:13.612Z,3.53
2019-03-02T23:50:42.038Z,4.10
2019-03-02T23:53:10.498Z,3.57
2019-03-02T23:58:56.158Z,3.50
